createdAt,value
2023-05-21T00:00:41.967Z,85.22
2023-05-21T00:03:31.521Z,85.54
2023-05-21T00:06:01.933Z,84.96
2023-05-21T00:08:29.940Z,85.07
2023-05-21T00:10:58.261Z,84.46
2023-05-21T00:13:26.027Z,85.15
2023-05-21T00:15:54.284Z,84.96
2023-05-21T00:18:22.487Z,86.21
2023-05-21T00:20:51.257Z,86.49
2023-05-21T00:23:19.536Z,84.88
2023-05-21T00:25:48.263Z,85.33
2023-05-21T00:28:16.290Z,85.88
2023-05-21T00:30:45.039Z,85.65
2023-05-21T00:33:14.124Z,86.14
2023-05-21T00:35:42.472Z,85.20
2023-05-21T00:38:10.346Z,85.92
2023-05-21T00:40:41.451Z,86.53
2023-05-21T00:43:12.384Z,87.14
2023-05-21T00:45:44.987Z,87.67
2023-05-21T00:48:13.646Z,87.88
2023-05-21T00:50:42.329Z,87.30
2023-05-21T00:53:11.212Z,87.78
2023-05-21T00:55:40.287Z,88.04
2023-05-21T00:58:08.761Z,87.20
2023-05-21T01:00:40.891Z,87.36
2023-05-21T01:03:09.352Z,87.79
2023-05-21T01:05:38.020Z,87.67
2023-05-21T01:08:08.017Z,88.05
2023-05-21T01:10:36.282Z,87.33
2023-05-21T01:13:04.245Z,89.37
2023-05-21T01:15:32.686Z,90.38
2023-05-21T01:18:00.663Z,89.50
2023-05-21T01:20:31.092Z,87.92
2023-05-21T01:22:59.685Z,88.07
2023-05-21T01:25:27.890Z,89.90
2023-05-21T01:27:56.322Z,92.17
2023-05-21T01:30:25.145Z,92.57
2023-05-21T01:32:59.108Z,92.80
2023-05-21T01:35:32.782Z,93.00
2023-05-21T01:38:03.509Z,94.31
2023-05-21T01:40:52.430Z,98.50
2023-05-21T01:43:21.193Z,95.83
2023-05-21T01:45:54.453Z,95.84
2023-05-21T01:53:06.541Z,95.69
2023-05-21T01:55:36.301Z,96.34
2023-05-21T01:58:04.528Z,96.63
2023-05-21T02:00:32.869Z,99.50
2023-05-21T02:03:00.925Z,100.00
2023-05-21T02:05:30.587Z,100.00
2023-05-21T02:08:00.242Z,99.45
2023-05-21T02:10:28.403Z,99.37
2023-05-21T02:12:56.238Z,100.00
2023-05-21T02:15:25.113Z,99.81
2023-05-21T02:17:53.322Z,97.80
2023-05-21T02:20:22.908Z,98.75
2023-05-21T02:22:50.684Z,97.94
2023-05-21T02:25:22.285Z,98.21
2023-05-21T02:27:54.025Z,98.44
2023-05-21T02:30:22.328Z,98.42
2023-05-21T02:32:50.997Z,98.33
2023-05-21T02:35:19.177Z,98.86
2023-05-21T02:37:46.914Z,98.21
2023-05-21T02:40:16.701Z,97.54
2023-05-21T02:42:44.466Z,96.38
2023-05-21T02:45:17.472Z,95.75
2023-05-21T02:47:45.604Z,95.79
2023-05-21T02:50:14.146Z,96.02
2023-05-21T02:52:50.774Z,95.61
2023-05-21T02:55:18.963Z,96.33
2023-05-21T02:57:46.765Z,94.97
2023-05-21T03:00:16.379Z,95.69
2023-05-21T03:02:45.673Z,95.09
2023-05-21T03:05:13.993Z,95.55
2023-05-21T03:07:42.675Z,94.48
2023-05-21T03:10:12.114Z,94.91
2023-05-21T03:12:39.932Z,94.26
2023-05-21T03:15:08.658Z,94.91
2023-05-21T03:17:36.599Z,95.32
2023-05-21T03:20:05.510Z,95.37
2023-05-21T03:22:33.578Z,93.68
2023-05-21T03:25:04.871Z,94.19
2023-05-21T03:27:32.890Z,93.89
2023-05-21T03:30:06.822Z,94.62
2023-05-21T03:32:45.481Z,94.85
2023-05-21T03:35:13.718Z,95.04
2023-05-21T03:37:41.607Z,95.40
2023-05-21T03:40:10.872Z,94.51
2023-05-21T03:42:38.792Z,96.16
2023-05-21T03:45:07.706Z,96.13
2023-05-21T03:47:54.485Z,96.45
2023-05-21T03:50:22.739Z,96.42
2023-05-21T03:52:50.701Z,96.11
2023-05-21T03:55:19.108Z,94.67
2023-05-21T03:57:47.058Z,93.49
2023-05-21T04:00:16.805Z,93.17
2023-05-21T04:02:44.524Z,93.19
2023-05-21T04:05:16.800Z,92.74
2023-05-21T04:07:46.696Z,90.58
2023-05-21T04:10:15.138Z,90.51
2023-05-21T04:12:42.893Z,90.61
2023-05-21T04:15:11.303Z,90.87
2023-05-21T04:17:40.693Z,89.96
2023-05-21T04:20:09.177Z,91.18
2023-05-21T04:22:37.469Z,90.63
2023-05-21T04:25:06.367Z,91.32
2023-05-21T04:27:37.861Z,91.00
2023-05-21T04:30:06.762Z,89.63
2023-05-21T04:32:37.163Z,89.18
2023-05-21T04:35:06.077Z,87.54
2023-05-21T04:37:35.364Z,87.69
2023-05-21T04:40:04.474Z,88.51
2023-05-21T04:42:33.299Z,88.12
2023-05-21T04:45:03.058Z,88.34
2023-05-21T04:47:35.719Z,86.08
2023-05-21T04:50:05.920Z,87.19
2023-05-21T04:52:35.255Z,87.20
2023-05-21T04:55:04.088Z,88.14
2023-05-21T04:57:31.920Z,88.06
2023-05-21T05:00:01.385Z,88.80
2023-05-21T05:02:33.312Z,87.85
2023-05-21T05:05:01.677Z,87.87
2023-05-21T05:07:29.527Z,88.69
2023-05-21T05:09:57.736Z,86.80
2023-05-21T05:12:25.723Z,85.91
2023-05-21T05:14:53.826Z,84.36
2023-05-21T05:17:21.610Z,84.06
2023-05-21T05:19:49.782Z,84.36
2023-05-21T05:22:17.542Z,84.68
2023-05-21T05:24:45.793Z,84.63
2023-05-21T05:27:13.590Z,85.27
2023-05-21T05:29:41.831Z,85.13
2023-05-21T05:32:09.593Z,84.43
2023-05-21T05:37:06.925Z,85.95
2023-05-21T05:39:35.240Z,85.74
2023-05-21T05:42:03.721Z,86.68
2023-05-21T05:44:31.869Z,88.28
2023-05-21T05:47:00.303Z,89.67
2023-05-21T05:49:29.967Z,89.22
2023-05-21T05:51:57.859Z,88.33
2023-05-21T05:54:26.059Z,87.09
2023-05-21T05:56:53.829Z,86.88
2023-05-21T05:59:22.277Z,86.96
2023-05-21T06:01:52.080Z,86.82
2023-05-21T06:04:20.242Z,84.82
2023-05-21T06:06:48.980Z,84.60
2023-05-21T06:09:17.101Z,85.30
2023-05-21T06:11:44.954Z,84.63
2023-05-21T06:14:13.410Z,84.85
2023-05-21T06:16:41.535Z,86.22
2023-05-21T06:19:09.949Z,85.35
2023-05-21T06:21:38.257Z,85.39
2023-05-21T06:24:08.384Z,84.75
2023-05-21T06:26:36.442Z,84.78
2023-05-21T06:29:05.357Z,84.37
2023-05-21T06:31:33.416Z,85.63
2023-05-21T06:34:01.858Z,86.07
2023-05-21T06:36:30.386Z,86.97
2023-05-21T06:38:59.440Z,85.75
2023-05-21T06:41:28.623Z,85.77
2023-05-21T06:44:00.538Z,85.49
2023-05-21T06:47:00.207Z,84.41
2023-05-21T06:49:28.366Z,84.61
2023-05-21T06:51:56.199Z,82.32
2023-05-21T06:54:26.672Z,82.11
2023-05-21T06:56:55.428Z,81.32
2023-05-21T06:59:23.582Z,81.07
2023-05-21T07:01:51.421Z,79.62
2023-05-21T07:04:19.597Z,77.32
2023-05-21T07:06:48.693Z,76.81
2023-05-21T07:09:18.778Z,75.80
2023-05-21T07:11:47.981Z,68.50
2023-05-21T07:14:18.036Z,63.05
2023-05-21T07:16:46.021Z,64.30
2023-05-21T07:19:15.584Z,63.64
2023-05-21T07:21:44.705Z,62.98
2023-05-21T07:24:13.075Z,61.63
2023-05-21T07:26:42.623Z,60.51
2023-05-21T07:29:12.720Z,59.28
2023-05-21T07:31:40.799Z,58.75
2023-05-21T07:34:08.972Z,57.83
2023-05-21T07:36:37.169Z,56.70
2023-05-21T07:39:05.548Z,56.30
2023-05-21T07:41:33.874Z,54.36
2023-05-21T07:44:06.532Z,54.18
2023-05-21T07:46:38.205Z,53.08
2023-05-21T07:49:07.015Z,52.75
2023-05-21T07:51:34.954Z,51.96
2023-05-21T07:54:04.389Z,53.84
2023-05-21T07:56:36.288Z,61.09
2023-05-21T07:59:06.072Z,59.65
2023-05-21T08:01:33.969Z,59.28
2023-05-21T08:04:05.844Z,58.45
2023-05-21T08:06:40.313Z,56.83
2023-05-21T08:09:08.749Z,56.38
2023-05-21T08:11:36.780Z,56.03
2023-05-21T08:14:04.950Z,56.12
2023-05-21T08:16:33.029Z,55.85
2023-05-21T08:19:01.276Z,54.42
2023-05-21T08:21:29.270Z,55.32
2023-05-21T08:23:57.739Z,54.24
2023-05-21T08:26:26.407Z,53.65
2023-05-21T08:28:54.610Z,53.87
2023-05-21T08:31:22.527Z,52.34
2023-05-21T08:33:56.707Z,51.60
2023-05-21T08:36:36.888Z,50.92
2023-05-21T08:39:11.572Z,49.60
2023-05-21T08:41:49.980Z,46.72
2023-05-21T08:44:22.738Z,42.89
2023-05-21T08:46:52.168Z,41.30
2023-05-21T08:49:27.596Z,39.36
2023-05-21T08:51:56.807Z,39.21
2023-05-21T08:54:28.246Z,37.71
2023-05-21T08:56:58.765Z,37.72
2023-05-21T08:59:27.459Z,37.23
2023-05-21T09:01:57.949Z,37.11
2023-05-21T09:04:34.432Z,35.78
2023-05-21T09:07:03.161Z,35.90
2023-05-21T09:09:57.831Z,36.16
2023-05-21T09:12:27.930Z,35.87
2023-05-21T09:14:58.709Z,36.13
2023-05-21T09:17:31.339Z,35.00
2023-05-21T09:20:14.952Z,35.34
2023-05-21T09:22:56.294Z,34.98
2023-05-21T09:25:28.393Z,34.15
2023-05-21T09:27:59.455Z,34.11
2023-05-21T09:30:30.197Z,33.23
2023-05-21T09:33:00.641Z,33.69
2023-05-21T09:35:29.645Z,33.82
2023-05-21T09:37:57.760Z,33.89
2023-05-21T09:40:26.316Z,33.43
2023-05-21T09:42:55.395Z,34.18
2023-05-21T09:45:27.677Z,33.70
2023-05-21T09:47:58.552Z,33.79
2023-05-21T09:50:31.984Z,33.65
2023-05-21T09:52:59.990Z,33.57
2023-05-21T09:55:28.983Z,32.96
2023-05-21T09:57:59.276Z,33.39
2023-05-21T10:00:30.515Z,33.64
2023-05-21T10:03:01.968Z,32.51
2023-05-21T10:05:31.106Z,32.92
2023-05-21T10:08:04.272Z,32.62
2023-05-21T10:10:32.995Z,32.45
2023-05-21T10:13:07.224Z,32.23
2023-05-21T10:15:46.480Z,32.55
2023-05-21T10:18:16.676Z,32.80
2023-05-21T10:20:46.714Z,32.99
2023-05-21T10:23:14.746Z,32.50
2023-05-21T10:25:43.264Z,32.46
2023-05-21T10:28:16.317Z,31.95
2023-05-21T10:30:45.084Z,32.24
2023-05-21T10:33:17.009Z,31.64
2023-05-21T10:35:47.482Z,32.60
2023-05-21T10:38:18.863Z,32.79
2023-05-21T10:40:50.484Z,33.60
2023-05-21T10:43:42.807Z,33.61
2023-05-21T10:46:55.471Z,32.80
2023-05-21T10:49:55.102Z,33.16
2023-05-21T10:53:00.552Z,32.90
2023-05-21T10:55:50.417Z,31.05
2023-05-21T10:58:37.396Z,30.96
2023-05-21T11:01:07.202Z,30.51
2023-05-21T11:03:37.707Z,30.74
2023-05-21T11:06:06.669Z,29.39
2023-05-21T11:08:36.394Z,29.80
2023-05-21T11:11:05.690Z,29.39
2023-05-21T11:13:49.800Z,29.73
2023-05-21T11:16:18.414Z,29.34
2023-05-21T11:18:46.798Z,28.69
2023-05-21T11:21:17.239Z,28.57
2023-05-21T11:23:51.668Z,28.55
2023-05-21T11:26:55.431Z,28.20
2023-05-21T11:29:33.914Z,27.17
2023-05-21T11:32:03.261Z,27.08
2023-05-21T11:34:46.103Z,27.38
2023-05-21T11:37:17.291Z,27.05
2023-05-21T11:39:45.906Z,27.26
2023-05-21T11:42:27.876Z,27.74
2023-05-21T11:45:01.152Z,27.11
2023-05-21T11:47:30.418Z,27.48
2023-05-21T11:50:01.528Z,27.60
2023-05-21T11:52:31.277Z,27.33
2023-05-21T11:55:00.194Z,28.02
2023-05-21T11:57:32.852Z,28.59
2023-05-21T12:00:02.614Z,29.16
2023-05-21T12:02:46.634Z,28.96
2023-05-21T12:05:15.370Z,28.66
2023-05-21T12:07:46.534Z,28.28
2023-05-21T12:10:14.932Z,28.58
2023-05-21T12:12:54.090Z,28.11
2023-05-21T12:15:26.444Z,27.89
2023-05-21T12:17:55.613Z,27.14
2023-05-21T12:20:26.541Z,27.80
2023-05-21T12:22:54.714Z,27.62
2023-05-21T12:25:23.337Z,27.01
2023-05-21T12:27:58.385Z,25.92
2023-05-21T12:30:27.456Z,27.23
2023-05-21T12:32:58.716Z,26.77
2023-05-21T12:35:27.291Z,27.66
2023-05-21T12:37:55.408Z,28.21
2023-05-21T12:40:37.496Z,26.69
2023-05-21T12:43:06.372Z,25.97
2023-05-21T12:45:35.074Z,26.54
2023-05-21T12:48:03.684Z,27.23
2023-05-21T12:50:33.382Z,26.84
2023-05-21T12:53:01.473Z,26.48
2023-05-21T12:55:31.770Z,26.47
2023-05-21T12:58:05.831Z,27.18
2023-05-21T13:00:35.245Z,26.06
2023-05-21T13:03:04.901Z,26.76
2023-05-21T13:05:33.583Z,26.06
2023-05-21T13:08:01.963Z,26.62
2023-05-21T13:10:30.384Z,26.27
2023-05-21T13:12:58.513Z,26.68
2023-05-21T13:15:27.299Z,27.90
2023-05-21T13:17:56.936Z,27.53
2023-05-21T13:20:27.797Z,26.57
2023-05-21T13:22:56.364Z,25.30
2023-05-21T13:25:32.915Z,26.84
2023-05-21T13:28:10.484Z,27.18
2023-05-21T13:30:39.303Z,27.30
2023-05-21T13:33:07.691Z,26.85
2023-05-21T13:35:36.466Z,28.03
2023-05-21T13:38:04.645Z,28.29
2023-05-21T13:40:33.282Z,27.95
2023-05-21T13:43:01.423Z,27.76
2023-05-21T13:45:29.891Z,27.96
2023-05-21T13:47:58.425Z,26.27
2023-05-21T13:50:27.110Z,27.46
2023-05-21T13:52:55.153Z,27.21
2023-05-21T13:55:23.629Z,27.41
2023-05-21T13:57:51.829Z,26.69
2023-05-21T14:00:20.242Z,26.30
2023-05-21T14:02:48.753Z,26.56
2023-05-21T14:05:19.293Z,27.27
2023-05-21T14:07:48.860Z,26.26
2023-05-21T14:10:17.471Z,26.13
2023-05-21T14:12:46.482Z,26.12
2023-05-21T14:15:15.237Z,27.75
2023-05-21T14:17:43.409Z,27.24
2023-05-21T14:20:12.412Z,29.17
2023-05-21T14:22:40.594Z,29.36
2023-05-21T14:25:09.532Z,29.21
2023-05-21T14:27:38.508Z,26.26
2023-05-21T14:30:07.790Z,26.61
2023-05-21T14:32:36.042Z,24.74
2023-05-21T14:35:05.231Z,23.89
2023-05-21T14:37:33.390Z,25.16
2023-05-21T14:40:02.128Z,25.62
2023-05-21T14:42:30.773Z,24.41
2023-05-21T14:44:59.503Z,25.28
2023-05-21T14:47:27.660Z,24.22
2023-05-21T14:49:56.075Z,24.40
2023-05-21T14:52:24.246Z,24.63
2023-05-21T14:54:52.640Z,23.74
2023-05-21T14:57:21.328Z,24.57
2023-05-21T14:59:49.829Z,23.85
2023-05-21T15:02:18.035Z,24.01
2023-05-21T15:04:46.546Z,24.35
2023-05-21T15:07:14.746Z,23.76
2023-05-21T15:09:43.375Z,23.35
2023-05-21T15:12:11.376Z,22.96
2023-05-21T15:14:41.213Z,24.38
2023-05-21T15:17:09.058Z,24.95
2023-05-21T15:19:37.343Z,25.33
2023-05-21T15:22:05.180Z,25.93
2023-05-21T15:24:33.449Z,26.11
2023-05-21T15:27:01.383Z,27.16
2023-05-21T15:29:29.655Z,28.06
2023-05-21T15:31:57.518Z,28.61
2023-05-21T15:34:26.126Z,27.68
2023-05-21T15:36:54.296Z,27.07
2023-05-21T15:39:22.448Z,26.20
2023-05-21T15:41:50.427Z,26.13
2023-05-21T15:44:18.595Z,25.90
2023-05-21T15:46:46.585Z,26.60
2023-05-21T15:49:14.966Z,26.53
2023-05-21T15:51:44.657Z,27.09
2023-05-21T15:54:14.090Z,27.20
2023-05-21T15:56:44.704Z,26.70
2023-05-21T15:59:14.229Z,26.28
2023-05-21T16:01:42.528Z,26.16
2023-05-21T16:04:10.865Z,26.05
2023-05-21T16:06:39.108Z,26.39
2023-05-21T16:09:07.286Z,26.84
2023-05-21T16:11:35.818Z,27.79
2023-05-21T16:14:04.015Z,27.05
2023-05-21T16:16:32.130Z,27.20
2023-05-21T16:19:02.056Z,27.69
2023-05-21T16:21:29.968Z,27.57
2023-05-21T16:23:58.125Z,27.51
2023-05-21T16:26:26.331Z,28.45
2023-05-21T16:28:55.024Z,29.15
2023-05-21T16:31:23.196Z,29.93
2023-05-21T16:33:51.656Z,29.43
2023-05-21T16:36:19.493Z,29.72
2023-05-21T16:38:47.626Z,29.57
2023-05-21T16:41:15.825Z,29.63
2023-05-21T16:43:44.566Z,30.42
2023-05-21T16:46:12.640Z,30.05
2023-05-21T16:48:42.120Z,30.77
2023-05-21T16:51:10.207Z,30.88
2023-05-21T16:53:38.807Z,30.91
2023-05-21T16:56:07.085Z,31.33
2023-05-21T16:58:36.474Z,31.84
2023-05-21T17:01:04.521Z,31.58
2023-05-21T17:03:33.107Z,30.89
2023-05-21T17:06:01.119Z,31.39
2023-05-21T17:08:29.526Z,31.84
2023-05-21T17:10:57.425Z,31.77
2023-05-21T17:13:26.102Z,32.20
2023-05-21T17:15:54.260Z,31.77
2023-05-21T17:18:22.455Z,31.59
2023-05-21T17:20:50.651Z,31.23
2023-05-21T17:23:19.347Z,31.96
2023-05-21T17:25:47.356Z,32.32
2023-05-21T17:28:17.190Z,32.56
2023-05-21T17:30:46.358Z,32.73
2023-05-21T17:33:15.962Z,33.88
2023-05-21T17:35:43.984Z,33.70
2023-05-21T17:38:12.117Z,33.36
2023-05-21T17:40:40.424Z,33.12
2023-05-21T17:43:08.767Z,32.66
2023-05-21T17:45:36.752Z,33.55
2023-05-21T17:48:05.665Z,33.30
2023-05-21T17:50:34.470Z,33.22
2023-05-21T17:53:03.037Z,33.66
2023-05-21T17:55:30.823Z,33.40
2023-05-21T17:57:59.404Z,33.53
2023-05-21T18:00:27.336Z,33.59
2023-05-21T18:02:55.615Z,33.55
2023-05-21T18:05:24.096Z,33.71
2023-05-21T18:07:52.315Z,33.71
2023-05-21T18:10:20.574Z,33.80
2023-05-21T18:12:48.714Z,33.50
2023-05-21T18:15:16.550Z,34.15
2023-05-21T18:17:45.091Z,34.31
2023-05-21T18:20:13.855Z,34.88
2023-05-21T18:22:42.041Z,35.01
2023-05-21T18:25:10.226Z,34.83
2023-05-21T18:27:38.606Z,35.56
2023-05-21T18:30:07.230Z,35.54
2023-05-21T18:32:38.901Z,35.95
2023-05-21T18:35:08.218Z,35.88
2023-05-21T18:37:37.491Z,36.40
2023-05-21T18:40:06.211Z,36.09
2023-05-21T18:42:34.672Z,36.47
2023-05-21T18:45:10.535Z,36.82
2023-05-21T18:47:40.592Z,36.80
2023-05-21T18:50:14.084Z,36.69
2023-05-21T18:52:42.368Z,36.83
2023-05-21T18:55:10.537Z,37.71
2023-05-21T18:57:39.878Z,38.04
2023-05-21T19:00:09.863Z,38.64
2023-05-21T19:02:39.967Z,38.56
2023-05-21T19:05:08.208Z,38.65
2023-05-21T19:07:36.694Z,38.64
2023-05-21T19:10:05.094Z,39.13
2023-05-21T19:12:36.399Z,39.92
2023-05-21T19:15:05.121Z,40.09
2023-05-21T19:17:35.572Z,40.23
2023-05-21T19:20:05.678Z,40.90
2023-05-21T19:22:37.825Z,41.17
2023-05-21T19:25:06.466Z,41.13
2023-05-21T19:27:34.852Z,41.62
2023-05-21T19:30:02.867Z,42.09
2023-05-21T19:32:31.703Z,42.89
2023-05-21T19:34:59.696Z,42.52
2023-05-21T19:37:28.304Z,43.22
2023-05-21T19:39:56.415Z,43.68
2023-05-21T19:42:24.676Z,44.10
2023-05-21T19:44:52.636Z,44.30
2023-05-21T19:47:21.294Z,45.37
2023-05-21T19:49:49.333Z,45.71
2023-05-21T19:52:17.783Z,45.26
2023-05-21T19:54:45.939Z,45.40
2023-05-21T19:57:14.263Z,45.44
2023-05-21T19:59:42.262Z,45.32
2023-05-21T20:02:17.179Z,45.75
2023-05-21T20:04:45.638Z,45.87
2023-05-21T20:07:15.016Z,46.27
2023-05-21T20:09:43.205Z,46.75
2023-05-21T20:12:11.971Z,46.29
2023-05-21T20:14:40.094Z,46.24
2023-05-21T20:17:08.976Z,46.41
2023-05-21T20:19:38.083Z,46.13
2023-05-21T20:22:07.000Z,46.18
2023-05-21T20:24:35.112Z,46.43
2023-05-21T20:27:03.893Z,47.44
2023-05-21T20:29:33.063Z,47.69
2023-05-21T20:32:01.355Z,46.79
2023-05-21T20:34:30.038Z,46.90
2023-05-21T20:36:58.609Z,47.03
2023-05-21T20:39:30.067Z,46.86
2023-05-21T20:42:00.098Z,47.08
2023-05-21T20:44:29.311Z,46.78
2023-05-21T20:46:57.589Z,46.38
2023-05-21T20:49:26.057Z,46.67
2023-05-21T20:51:54.705Z,47.15
2023-05-21T20:54:22.669Z,46.68
2023-05-21T20:56:51.038Z,46.54
2023-05-21T20:59:19.140Z,46.76
2023-05-21T21:01:47.548Z,46.71
2023-05-21T21:04:16.341Z,46.72
2023-05-21T21:06:46.786Z,47.42
2023-05-21T21:09:14.759Z,46.71
2023-05-21T21:11:43.067Z,47.16
2023-05-21T21:14:11.190Z,47.05
2023-05-21T21:16:39.531Z,47.08
2023-05-21T21:19:07.577Z,46.91
2023-05-21T21:21:36.320Z,46.35
2023-05-21T21:24:04.608Z,45.86
2023-05-21T21:26:32.870Z,46.28
2023-05-21T21:29:01.484Z,45.64
2023-05-21T21:31:30.191Z,46.37
2023-05-21T21:33:58.476Z,45.79
2023-05-21T21:36:26.451Z,45.52
2023-05-21T21:38:55.722Z,45.95
2023-05-21T21:41:23.882Z,46.15
2023-05-21T21:43:52.594Z,46.18
2023-05-21T21:46:20.913Z,46.90
2023-05-21T21:48:49.168Z,46.09
2023-05-21T21:51:17.294Z,46.32
2023-05-21T21:53:45.543Z,46.10
2023-05-21T21:56:13.418Z,47.58
2023-05-21T21:58:41.815Z,47.21
2023-05-21T22:01:09.877Z,47.58
2023-05-21T22:03:38.184Z,48.11
2023-05-21T22:06:06.342Z,48.14
2023-05-21T22:08:34.595Z,48.18
2023-05-21T22:11:03.496Z,48.43
2023-05-21T22:13:31.696Z,48.38
2023-05-21T22:15:59.613Z,48.65
2023-05-21T22:18:40.331Z,49.24
2023-05-21T22:21:14.496Z,48.99
2023-05-21T22:23:42.996Z,48.50
2023-05-21T22:26:11.005Z,48.25
2023-05-21T22:28:39.333Z,48.47
2023-05-21T22:31:08.018Z,48.43
2023-05-21T22:33:36.927Z,48.50
2023-05-21T22:36:05.391Z,48.97
2023-05-21T22:38:33.943Z,49.75
2023-05-21T22:41:02.141Z,49.19
2023-05-21T22:43:30.607Z,49.77
2023-05-21T22:45:58.828Z,49.86
2023-05-21T22:48:27.107Z,50.20
2023-05-21T22:50:55.007Z,50.81
2023-05-21T22:53:23.767Z,50.58
2023-05-21T22:55:51.719Z,50.88
2023-05-21T22:58:20.078Z,49.97
2023-05-21T23:00:48.355Z,50.34
2023-05-21T23:03:16.968Z,49.45
2023-05-21T23:05:45.454Z,49.19
2023-05-21T23:08:14.376Z,48.42
2023-05-21T23:10:42.723Z,48.69
2023-05-21T23:13:13.051Z,48.78
2023-05-21T23:15:44.124Z,49.19
2023-05-21T23:18:12.912Z,48.10
2023-05-21T23:20:41.644Z,47.63
2023-05-21T23:23:11.188Z,46.85
2023-05-21T23:25:39.625Z,46.47
2023-05-21T23:28:08.025Z,46.01
2023-05-21T23:30:36.245Z,45.74
2023-05-21T23:33:05.202Z,45.80
2023-05-21T23:35:33.448Z,44.68
2023-05-21T23:38:02.071Z,44.28
2023-05-21T23:40:30.155Z,42.79
2023-05-21T23:42:58.957Z,42.37
2023-05-21T23:45:27.092Z,42.63
2023-05-21T23:47:55.808Z,42.08
2023-05-21T23:50:24.982Z,42.39
2023-05-21T23:52:53.957Z,41.89
2023-05-21T23:55:22.085Z,41.88
2023-05-21T23:57:50.704Z,42.34
